sensor_id;sensor_type;location;lat;lon;timestamp;pressure;altitude;pressure_sealevel;temperature;humidity
61039;BME280;46919;45.816;3.104;2023-03-18T00:01:23;97399.03;;;7.89;66.45
61039;BME280;46919;45.816;3.104;2023-03-18T00:03:48;97409.81;;;7.89;66.21
61039;BME280;46919;45.816;3.104;2023-03-18T00:06:16;97409.53;;;7.97;65.61
61039;BME280;46919;45.816;3.104;2023-03-18T00:08:44;97408.94;;;7.95;65.70
61039;BME280;46919;45.816;3.104;2023-03-18T00:11:11;97411.84;;;7.93;65.82
61039;BME280;46919;45.816;3.104;2023-03-18T00:13:38;97425.94;;;7.89;65.85
61039;BME280;46919;45.816;3.104;2023-03-18T00:16:05;97427.69;;;7.76;66.36
61039;BME280;46919;45.816;3.104;2023-03-18T00:18:31;97423.00;;;7.65;67.02
61039;BME280;46919;45.816;3.104;2023-03-18T00:20:57;97425.69;;;7.65;67.25
61039;BME280;46919;45.816;3.104;2023-03-18T00:23:25;97423.97;;;7.77;66.97
61039;BME280;46919;45.816;3.104;2023-03-18T00:25:53;97428.28;;;7.78;67.18
61039;BME280;46919;45.816;3.104;2023-03-18T00:28:21;97432.41;;;7.81;66.99
61039;BME280;46919;45.816;3.104;2023-03-18T00:30:47;97436.34;;;7.78;67.34
61039;BME280;46919;45.816;3.104;2023-03-18T00:33:14;97434.72;;;7.77;67.13
61039;BME280;46919;45.816;3.104;2023-03-18T00:35:40;97427.47;;;7.78;67.04
61039;BME280;46919;45.816;3.104;2023-03-18T00:38:05;97429.78;;;7.74;67.15
61039;BME280;46919;45.816;3.104;2023-03-18T00:40:33;97422.31;;;7.76;67.11
61039;BME280;46919;45.816;3.104;2023-03-18T00:43:18;97415.03;;;7.77;67.11
61039;BME280;46919;45.816;3.104;2023-03-18T00:45:47;97418.16;;;7.80;67.12
61039;BME280;46919;45.816;3.104;2023-03-18T00:48:13;97414.41;;;7.82;66.97
61039;BME280;46919;45.816;3.104;2023-03-18T00:50:39;97415.25;;;7.82;67.08
61039;BME280;46919;45.816;3.104;2023-03-18T00:53:05;97404.03;;;7.85;66.69
61039;BME280;46919;45.816;3.104;2023-03-18T00:55:31;97407.91;;;7.89;66.75
61039;BME280;46919;45.816;3.104;2023-03-18T00:57:57;97412.66;;;7.94;66.28
61039;BME280;46919;45.816;3.104;2023-03-18T01:00:22;97405.13;;;8.03;65.32
61039;BME280;46919;45.816;3.104;2023-03-18T01:02:50;97404.00;;;8.10;64.84
61039;BME280;46919;45.816;3.104;2023-03-18T01:05:16;97402.69;;;8.20;63.51
61039;BME280;46919;45.816;3.104;2023-03-18T01:07:42;97399.13;;;8.26;62.95
61039;BME280;46919;45.816;3.104;2023-03-18T01:10:09;97395.97;;;8.29;62.22
61039;BME280;46919;45.816;3.104;2023-03-18T01:12:34;97389.72;;;8.35;62.02
61039;BME280;46919;45.816;3.104;2023-03-18T01:15:00;97392.41;;;8.35;61.90
61039;BME280;46919;45.816;3.104;2023-03-18T01:17:25;97379.97;;;8.34;61.71
61039;BME280;46919;45.816;3.104;2023-03-18T01:19:51;97394.44;;;8.40;61.49
61039;BME280;46919;45.816;3.104;2023-03-18T01:22:17;97376.63;;;8.39;61.14
61039;BME280;46919;45.816;3.104;2023-03-18T01:24:43;97374.13;;;8.37;61.26
61039;BME280;46919;45.816;3.104;2023-03-18T01:27:10;97374.38;;;8.35;61.44
61039;BME280;46919;45.816;3.104;2023-03-18T01:29:36;97372.50;;;8.36;60.93
61039;BME280;46919;45.816;3.104;2023-03-18T01:32:02;97367.13;;;8.36;60.94
61039;BME280;46919;45.816;3.104;2023-03-18T01:34:28;97376.38;;;8.40;60.37
61039;BME280;46919;45.816;3.104;2023-03-18T01:36:53;97358.84;;;8.38;60.29
61039;BME280;46919;45.816;3.104;2023-03-18T01:39:20;97364.66;;;8.34;60.30
61039;BME280;46919;45.816;3.104;2023-03-18T01:41:46;97347.50;;;8.29;60.29
61039;BME280;46919;45.816;3.104;2023-03-18T01:44:16;97350.13;;;8.35;59.64
61039;BME280;46919;45.816;3.104;2023-03-18T01:46:45;97356.38;;;8.36;59.29
61039;BME280;46919;45.816;3.104;2023-03-18T01:49:30;97344.31;;;8.39;59.29
61039;BME280;46919;45.816;3.104;2023-03-18T01:52:24;97346.78;;;8.40;59.31
61039;BME280;46919;45.816;3.104;2023-03-18T01:55:00;97341.84;;;8.37;59.23
61039;BME280;46919;45.816;3.104;2023-03-18T01:57:28;97336.06;;;8.33;59.22
61039;BME280;46919;45.816;3.104;2023-03-18T01:59:55;97338.84;;;8.27;59.69
61039;BME280;46919;45.816;3.104;2023-03-18T02:02:21;97347.38;;;8.24;59.69
61039;BME280;46919;45.816;3.104;2023-03-18T02:04:52;97346.94;;;8.27;59.62
61039;BME280;46919;45.816;3.104;2023-03-18T02:07:30;97352.53;;;8.25;59.73
61039;BME280;46919;45.816;3.104;2023-03-18T02:09:57;97357.09;;;8.25;59.34
61039;BME280;46919;45.816;3.104;2023-03-18T02:12:27;97355.22;;;8.25;59.60
61039;BME280;46919;45.816;3.104;2023-03-18T02:14:54;97350.66;;;8.26;59.36
61039;BME280;46919;45.816;3.104;2023-03-18T02:17:24;97346.94;;;8.27;59.47
61039;BME280;46919;45.816;3.104;2023-03-18T02:28:06;97365.63;;;8.22;58.87
61039;BME280;46919;45.816;3.104;2023-03-18T02:30:40;97372.47;;;8.18;59.06
61039;BME280;46919;45.816;3.104;2023-03-18T02:33:08;97365.88;;;8.13;59.35
61039;BME280;46919;45.816;3.104;2023-03-18T02:35:35;97364.94;;;8.08;60.26
61039;BME280;46919;45.816;3.104;2023-03-18T02:38:01;97378.16;;;8.09;59.84
61039;BME280;46919;45.816;3.104;2023-03-18T02:40:47;97369.25;;;8.09;60.04
61039;BME280;46919;45.816;3.104;2023-03-18T02:43:24;97372.00;;;8.02;60.25
61039;BME280;46919;45.816;3.104;2023-03-18T02:48:35;97369.59;;;7.94;61.10
61039;BME280;46919;45.816;3.104;2023-03-18T02:51:02;97373.38;;;7.86;62.05
61039;BME280;46919;45.816;3.104;2023-03-18T02:53:28;97381.28;;;7.81;62.40
61039;BME280;46919;45.816;3.104;2023-03-18T02:55:54;97388.56;;;7.80;62.27
61039;BME280;46919;45.816;3.104;2023-03-18T02:58:19;97375.84;;;7.88;61.80
61039;BME280;46919;45.816;3.104;2023-03-18T03:00:44;97376.47;;;7.90;62.27
61039;BME280;46919;45.816;3.104;2023-03-18T03:03:10;97364.78;;;8.03;60.92
61039;BME280;46919;45.816;3.104;2023-03-18T03:05:35;97371.50;;;8.12;60.84
61039;BME280;46919;45.816;3.104;2023-03-18T03:08:01;97376.22;;;8.16;60.93
61039;BME280;46919;45.816;3.104;2023-03-18T03:10:27;97365.84;;;8.20;60.19
61039;BME280;46919;45.816;3.104;2023-03-18T03:12:53;97364.13;;;8.26;60.00
61039;BME280;46919;45.816;3.104;2023-03-18T03:15:18;97353.78;;;8.23;60.39
61039;BME280;46919;45.816;3.104;2023-03-18T03:17:44;97361.13;;;8.15;60.79
61039;BME280;46919;45.816;3.104;2023-03-18T03:20:10;97367.84;;;8.06;61.89
61039;BME280;46919;45.816;3.104;2023-03-18T03:22:35;97361.53;;;7.94;62.34
61039;BME280;46919;45.816;3.104;2023-03-18T03:25:01;97375.47;;;7.84;62.81
61039;BME280;46919;45.816;3.104;2023-03-18T03:27:27;97370.16;;;7.77;62.63
61039;BME280;46919;45.816;3.104;2023-03-18T03:29:53;97376.47;;;7.65;63.18
61039;BME280;46919;45.816;3.104;2023-03-18T03:32:20;97370.97;;;7.53;63.48
61039;BME280;46919;45.816;3.104;2023-03-18T03:34:45;97374.50;;;7.47;64.19
61039;BME280;46919;45.816;3.104;2023-03-18T03:37:12;97378.06;;;7.40;64.83
61039;BME280;46919;45.816;3.104;2023-03-18T03:39:38;97374.56;;;7.40;64.83
61039;BME280;46919;45.816;3.104;2023-03-18T03:42:03;97370.44;;;7.37;64.36
61039;BME280;46919;45.816;3.104;2023-03-18T03:44:29;97354.09;;;7.39;64.63
61039;BME280;46919;45.816;3.104;2023-03-18T03:46:55;97374.19;;;7.36;64.90
61039;BME280;46919;45.816;3.104;2023-03-18T03:49:20;97368.38;;;7.39;64.68
61039;BME280;46919;45.816;3.104;2023-03-18T03:51:46;97382.25;;;7.36;64.67
61039;BME280;46919;45.816;3.104;2023-03-18T03:54:12;97385.81;;;7.30;65.15
61039;BME280;46919;45.816;3.104;2023-03-18T03:56:38;97377.56;;;7.25;65.78
61039;BME280;46919;45.816;3.104;2023-03-18T03:59:04;97379.81;;;7.28;65.84
61039;BME280;46919;45.816;3.104;2023-03-18T04:01:29;97365.09;;;7.31;66.09
61039;BME280;46919;45.816;3.104;2023-03-18T04:03:55;97363.59;;;7.41;64.88
61039;BME280;46919;45.816;3.104;2023-03-18T04:06:20;97368.25;;;7.53;64.41
61039;BME280;46919;45.816;3.104;2023-03-18T04:08:46;97363.69;;;7.60;63.91
61039;BME280;46919;45.816;3.104;2023-03-18T04:11:11;97373.13;;;7.69;63.56
61039;BME280;46919;45.816;3.104;2023-03-18T04:13:37;97371.19;;;7.76;62.84
61039;BME280;46919;45.816;3.104;2023-03-18T04:16:03;97364.94;;;7.83;62.45
61039;BME280;46919;45.816;3.104;2023-03-18T04:18:28;97363.47;;;7.87;61.91
61039;BME280;46919;45.816;3.104;2023-03-18T04:20:54;97362.19;;;7.89;61.20
61039;BME280;46919;45.816;3.104;2023-03-18T04:23:20;97368.78;;;7.93;61.17
61039;BME280;46919;45.816;3.104;2023-03-18T04:25:45;97366.47;;;7.97;60.60
61039;BME280;46919;45.816;3.104;2023-03-18T04:28:11;97365.44;;;7.98;60.21
61039;BME280;46919;45.816;3.104;2023-03-18T04:30:38;97374.09;;;8.00;59.49
61039;BME280;46919;45.816;3.104;2023-03-18T04:33:04;97372.84;;;8.03;59.67
61039;BME280;46919;45.816;3.104;2023-03-18T04:35:29;97373.06;;;8.01;59.13
61039;BME280;46919;45.816;3.104;2023-03-18T04:37:54;97366.25;;;7.98;59.28
61039;BME280;46919;45.816;3.104;2023-03-18T04:40:20;97373.50;;;7.98;59.01
61039;BME280;46919;45.816;3.104;2023-03-18T04:42:46;97374.53;;;7.97;59.34
61039;BME280;46919;45.816;3.104;2023-03-18T04:45:12;97364.00;;;7.95;59.12
61039;BME280;46919;45.816;3.104;2023-03-18T04:47:39;97365.88;;;7.95;58.59
61039;BME280;46919;45.816;3.104;2023-03-18T04:50:05;97360.94;;;7.92;59.20
61039;BME280;46919;45.816;3.104;2023-03-18T04:52:32;97365.72;;;7.90;59.79
61039;BME280;46919;45.816;3.104;2023-03-18T04:54:58;97366.75;;;7.89;59.85
61039;BME280;46919;45.816;3.104;2023-03-18T04:57:24;97371.09;;;7.90;59.86
61039;BME280;46919;45.816;3.104;2023-03-18T04:59:50;97371.09;;;7.90;60.12
61039;BME280;46919;45.816;3.104;2023-03-18T05:02:15;97363.03;;;7.90;60.26
61039;BME280;46919;45.816;3.104;2023-03-18T05:04:41;97362.63;;;7.86;60.52
61039;BME280;46919;45.816;3.104;2023-03-18T05:07:07;97375.09;;;7.80;60.91
61039;BME280;46919;45.816;3.104;2023-03-18T05:09:32;97367.47;;;7.77;61.61
61039;BME280;46919;45.816;3.104;2023-03-18T05:11:58;97366.63;;;7.77;61.92
61039;BME280;46919;45.816;3.104;2023-03-18T05:14:24;97369.28;;;7.84;61.29
61039;BME280;46919;45.816;3.104;2023-03-18T05:16:49;97370.91;;;7.85;61.14
61039;BME280;46919;45.816;3.104;2023-03-18T05:19:15;97377.94;;;7.86;61.09
61039;BME280;46919;45.816;3.104;2023-03-18T05:21:41;97364.50;;;7.86;61.10
61039;BME280;46919;45.816;3.104;2023-03-18T05:24:07;97380.94;;;7.96;60.81
61039;BME280;46919;45.816;3.104;2023-03-18T05:26:32;97374.16;;;7.93;61.04
61039;BME280;46919;45.816;3.104;2023-03-18T05:28:58;97384.38;;;7.85;62.04
61039;BME280;46919;45.816;3.104;2023-03-18T05:31:23;97377.16;;;7.78;62.42
61039;BME280;46919;45.816;3.104;2023-03-18T05:33:49;97373.00;;;7.83;62.45
61039;BME280;46919;45.816;3.104;2023-03-18T05:36:15;97365.31;;;7.86;61.92
61039;BME280;46919;45.816;3.104;2023-03-18T05:38:40;97372.50;;;7.92;61.49
61039;BME280;46919;45.816;3.104;2023-03-18T05:41:06;97366.09;;;7.93;60.97
61039;BME280;46919;45.816;3.104;2023-03-18T05:43:32;97370.81;;;7.98;59.95
61039;BME280;46919;45.816;3.104;2023-03-18T05:45:57;97373.66;;;8.03;59.31
61039;BME280;46919;45.816;3.104;2023-03-18T05:48:23;97368.06;;;8.05;59.68
61039;BME280;46919;45.816;3.104;2023-03-18T05:50:48;97376.94;;;8.05;59.74
61039;BME280;46919;45.816;3.104;2023-03-18T05:53:14;97370.41;;;7.94;60.19
61039;BME280;46919;45.816;3.104;2023-03-18T05:55:41;97371.75;;;7.85;60.92
61039;BME280;46919;45.816;3.104;2023-03-18T05:58:07;97379.03;;;7.78;61.64
61039;BME280;46919;45.816;3.104;2023-03-18T06:00:34;97385.06;;;7.73;62.76
61039;BME280;46919;45.816;3.104;2023-03-18T06:03:00;97384.31;;;7.66;63.65
61039;BME280;46919;45.816;3.104;2023-03-18T06:05:26;97374.88;;;7.57;64.08
61039;BME280;46919;45.816;3.104;2023-03-18T06:07:53;97375.09;;;7.55;64.91
61039;BME280;46919;45.816;3.104;2023-03-18T06:10:19;97367.06;;;7.49;64.96
61039;BME280;46919;45.816;3.104;2023-03-18T06:12:45;97366.22;;;7.48;65.82
61039;BME280;46919;45.816;3.104;2023-03-18T06:15:11;97379.88;;;7.47;66.23
61039;BME280;46919;45.816;3.104;2023-03-18T06:17:38;97376.59;;;7.44;66.81
61039;BME280;46919;45.816;3.104;2023-03-18T06:20:05;97381.59;;;7.41;67.56
61039;BME280;46919;45.816;3.104;2023-03-18T06:22:33;97378.28;;;7.39;67.67
61039;BME280;46919;45.816;3.104;2023-03-18T06:24:58;97384.72;;;7.38;67.97
61039;BME280;46919;45.816;3.104;2023-03-18T06:27:24;97387.47;;;7.31;68.83
61039;BME280;46919;45.816;3.104;2023-03-18T06:29:49;97380.22;;;7.32;68.70
61039;BME280;46919;45.816;3.104;2023-03-18T06:32:15;97376.50;;;7.33;69.12
61039;BME280;46919;45.816;3.104;2023-03-18T06:34:40;97380.00;;;7.33;69.09
61039;BME280;46919;45.816;3.104;2023-03-18T06:37:06;97378.34;;;7.32;69.80
61039;BME280;46919;45.816;3.104;2023-03-18T06:39:32;97384.09;;;7.36;70.02
61039;BME280;46919;45.816;3.104;2023-03-18T06:41:59;97376.88;;;7.36;69.60
61039;BME280;46919;45.816;3.104;2023-03-18T06:44:24;97374.56;;;7.40;68.91
61039;BME280;46919;45.816;3.104;2023-03-18T06:46:50;97373.91;;;7.44;69.00
61039;BME280;46919;45.816;3.104;2023-03-18T06:49:15;97376.16;;;7.48;68.81
61039;BME280;46919;45.816;3.104;2023-03-18T06:51:41;97382.78;;;7.52;68.39
61039;BME280;46919;45.816;3.104;2023-03-18T06:54:08;97388.75;;;7.54;68.64
61039;BME280;46919;45.816;3.104;2023-03-18T06:56:34;97387.88;;;7.60;68.57
61039;BME280;46919;45.816;3.104;2023-03-18T06:59:03;97395.94;;;7.60;68.65
61039;BME280;46919;45.816;3.104;2023-03-18T07:01:28;97396.72;;;7.67;68.76
61039;BME280;46919;45.816;3.104;2023-03-18T07:03:54;97397.94;;;7.71;69.35
61039;BME280;46919;45.816;3.104;2023-03-18T07:06:20;97397.88;;;7.78;69.42
61039;BME280;46919;45.816;3.104;2023-03-18T07:08:46;97389.94;;;7.90;69.22
61039;BME280;46919;45.816;3.104;2023-03-18T07:11:11;97393.97;;;7.99;69.02
61039;BME280;46919;45.816;3.104;2023-03-18T07:13:37;97395.13;;;8.10;68.62
61039;BME280;46919;45.816;3.104;2023-03-18T07:16:03;97394.63;;;8.20;68.15
61039;BME280;46919;45.816;3.104;2023-03-18T07:18:28;97400.31;;;8.30;67.83
61039;BME280;46919;45.816;3.104;2023-03-18T07:20:55;97402.72;;;8.38;67.71
61039;BME280;46919;45.816;3.104;2023-03-18T07:23:20;97399.66;;;8.60;67.56
61039;BME280;46919;45.816;3.104;2023-03-18T07:25:46;97390.81;;;8.71;66.83
61039;BME280;46919;45.816;3.104;2023-03-18T07:28:12;97391.97;;;8.75;66.81
61039;BME280;46919;45.816;3.104;2023-03-18T07:30:37;97375.75;;;8.82;67.46
61039;BME280;46919;45.816;3.104;2023-03-18T07:33:04;97382.91;;;8.88;66.44
61039;BME280;46919;45.816;3.104;2023-03-18T07:35:29;97380.53;;;8.98;64.69
61039;BME280;46919;45.816;3.104;2023-03-18T07:37:55;97379.06;;;9.14;63.44
61039;BME280;46919;45.816;3.104;2023-03-18T07:40:21;97382.53;;;9.33;62.97
61039;BME280;46919;45.816;3.104;2023-03-18T07:42:47;97386.56;;;9.42;62.04
61039;BME280;46919;45.816;3.104;2023-03-18T07:45:16;97387.38;;;9.43;61.66
61039;BME280;46919;45.816;3.104;2023-03-18T07:47:41;97384.91;;;9.41;60.36
61039;BME280;46919;45.816;3.104;2023-03-18T07:50:08;97379.50;;;9.41;60.69
61039;BME280;46919;45.816;3.104;2023-03-18T07:52:33;97389.75;;;9.51;61.40
61039;BME280;46919;45.816;3.104;2023-03-18T07:54:59;97390.84;;;9.62;61.05
61039;BME280;46919;45.816;3.104;2023-03-18T07:57:26;97382.31;;;9.77;60.46
61039;BME280;46919;45.816;3.104;2023-03-18T07:59:52;97386.91;;;9.88;59.99
61039;BME280;46919;45.816;3.104;2023-03-18T08:02:17;97381.63;;;9.93;60.42
61039;BME280;46919;45.816;3.104;2023-03-18T08:04:42;97380.34;;;9.96;59.63
61039;BME280;46919;45.816;3.104;2023-03-18T08:07:11;97385.38;;;9.92;59.62
61039;BME280;46919;45.816;3.104;2023-03-18T08:09:37;97395.00;;;9.88;58.98
61039;BME280;46919;45.816;3.104;2023-03-18T08:12:02;97402.13;;;9.83;58.75
61039;BME280;46919;45.816;3.104;2023-03-18T08:14:28;97417.25;;;9.72;59.36
61039;BME280;46919;45.816;3.104;2023-03-18T08:16:53;97413.63;;;9.66;58.94
61039;BME280;46919;45.816;3.104;2023-03-18T08:19:19;97412.41;;;9.62;59.80
61039;BME280;46919;45.816;3.104;2023-03-18T08:21:45;97419.69;;;9.61;60.04
61039;BME280;46919;45.816;3.104;2023-03-18T08:24:12;97417.47;;;9.58;59.66
61039;BME280;46919;45.816;3.104;2023-03-18T08:26:38;97417.47;;;9.58;59.88
61039;BME280;46919;45.816;3.104;2023-03-18T08:29:03;97413.09;;;9.57;59.75
61039;BME280;46919;45.816;3.104;2023-03-18T08:31:29;97425.41;;;9.53;59.68
61039;BME280;46919;45.816;3.104;2023-03-18T08:33:56;97418.97;;;9.54;60.00
61039;BME280;46919;45.816;3.104;2023-03-18T08:36:22;97428.72;;;9.55;59.65
61039;BME280;46919;45.816;3.104;2023-03-18T08:38:49;97428.25;;;9.58;59.53
61039;BME280;46919;45.816;3.104;2023-03-18T08:41:15;97423.78;;;9.64;59.31
61039;BME280;46919;45.816;3.104;2023-03-18T08:43:41;97437.22;;;9.71;59.25
61039;BME280;46919;45.816;3.104;2023-03-18T08:46:07;97434.41;;;9.77;59.69
61039;BME280;46919;45.816;3.104;2023-03-18T08:48:32;97437.00;;;9.84;60.80
61039;BME280;46919;45.816;3.104;2023-03-18T08:51:02;97443.94;;;9.92;60.47
61039;BME280;46919;45.816;3.104;2023-03-18T08:53:27;97437.72;;;9.91;61.06
61039;BME280;46919;45.816;3.104;2023-03-18T08:55:53;97445.59;;;9.93;60.39
61039;BME280;46919;45.816;3.104;2023-03-18T08:58:18;97451.81;;;9.93;60.78
61039;BME280;46919;45.816;3.104;2023-03-18T09:00:44;97460.38;;;9.90;60.78
61039;BME280;46919;45.816;3.104;2023-03-18T09:03:09;97457.09;;;9.88;61.82
61039;BME280;46919;45.816;3.104;2023-03-18T09:05:35;97453.78;;;9.86;62.06
61039;BME280;46919;45.816;3.104;2023-03-18T09:08:01;97455.44;;;9.87;63.18
61039;BME280;46919;45.816;3.104;2023-03-18T09:10:27;97449.91;;;9.82;63.16
61039;BME280;46919;45.816;3.104;2023-03-18T09:12:54;97453.53;;;9.76;63.42
61039;BME280;46919;45.816;3.104;2023-03-18T09:15:19;97466.28;;;9.69;64.36
61039;BME280;46919;45.816;3.104;2023-03-18T09:17:46;97451.38;;;9.66;65.63
61039;BME280;46919;45.816;3.104;2023-03-18T09:20:14;97455.94;;;9.66;66.30
61039;BME280;46919;45.816;3.104;2023-03-18T09:22:41;97449.84;;;9.70;67.46
61039;BME280;46919;45.816;3.104;2023-03-18T09:25:07;97453.41;;;9.83;68.97
61039;BME280;46919;45.816;3.104;2023-03-18T09:27:33;97457.66;;;9.90;69.34
61039;BME280;46919;45.816;3.104;2023-03-18T09:29:59;97465.44;;;9.98;69.77
61039;BME280;46919;45.816;3.104;2023-03-18T09:32:24;97467.44;;;10.03;69.48
61039;BME280;46919;45.816;3.104;2023-03-18T09:34:50;97471.69;;;10.11;70.34
61039;BME280;46919;45.816;3.104;2023-03-18T09:37:16;97471.81;;;10.16;72.35
61039;BME280;46919;45.816;3.104;2023-03-18T09:39:43;97466.06;;;10.12;73.58
61039;BME280;46919;45.816;3.104;2023-03-18T09:44:40;97464.03;;;10.08;74.55
61039;BME280;46919;45.816;3.104;2023-03-18T09:50:19;97476.97;;;10.06;75.05
61039;BME280;46919;45.816;3.104;2023-03-18T09:55:44;97461.22;;;10.03;74.03
61039;BME280;46919;45.816;3.104;2023-03-18T09:58:28;97465.31;;;10.05;76.03
61039;BME280;46919;45.816;3.104;2023-03-18T10:00:59;97465.09;;;10.07;76.37
61039;BME280;46919;45.816;3.104;2023-03-18T10:05:55;97480.47;;;10.06;76.52
61039;BME280;46919;45.816;3.104;2023-03-18T10:11:03;97486.38;;;10.15;76.19
61039;BME280;46919;45.816;3.104;2023-03-18T10:13:34;97484.03;;;10.19;75.84
61039;BME280;46919;45.816;3.104;2023-03-18T10:16:05;97471.34;;;10.19;76.95
61039;BME280;46919;45.816;3.104;2023-03-18T10:18:36;97468.88;;;10.18;76.28
61039;BME280;46919;45.816;3.104;2023-03-18T10:21:25;97470.75;;;10.17;77.28
61039;BME280;46919;45.816;3.104;2023-03-18T10:27:00;97467.91;;;10.00;79.18
61039;BME280;46919;45.816;3.104;2023-03-18T10:29:54;97477.28;;;9.97;79.60
61039;BME280;46919;45.816;3.104;2023-03-18T10:32:37;97471.84;;;9.86;81.00
61039;BME280;46919;45.816;3.104;2023-03-18T10:35:25;97461.28;;;9.84;80.63
61039;BME280;46919;45.816;3.104;2023-03-18T10:40:42;97473.75;;;9.85;81.42
61039;BME280;46919;45.816;3.104;2023-03-18T10:43:20;97471.03;;;9.85;81.66
61039;BME280;46919;45.816;3.104;2023-03-18T10:46:07;97469.97;;;9.86;81.79
61039;BME280;46919;45.816;3.104;2023-03-18T10:51:29;97485.56;;;9.84;81.68
61039;BME280;46919;45.816;3.104;2023-03-18T10:54:09;97481.44;;;9.82;81.45
61039;BME280;46919;45.816;3.104;2023-03-18T10:56:37;97475.34;;;9.74;82.44
61039;BME280;46919;45.816;3.104;2023-03-18T10:59:15;97485.31;;;9.74;83.01
61039;BME280;46919;45.816;3.104;2023-03-18T11:01:46;97486.13;;;9.74;83.83
61039;BME280;46919;45.816;3.104;2023-03-18T11:04:14;97481.66;;;9.68;84.00
61039;BME280;46919;45.816;3.104;2023-03-18T11:06:45;97477.53;;;9.66;85.51
61039;BME280;46919;45.816;3.104;2023-03-18T11:09:32;97485.16;;;9.69;86.40
61039;BME280;46919;45.816;3.104;2023-03-18T11:12:05;97492.81;;;9.72;86.02
61039;BME280;46919;45.816;3.104;2023-03-18T11:14:37;97484.88;;;9.77;86.68
61039;BME280;46919;45.816;3.104;2023-03-18T11:17:05;97491.88;;;9.78;87.04
61039;BME280;46919;45.816;3.104;2023-03-18T11:19:47;97491.31;;;9.76;87.40
61039;BME280;46919;45.816;3.104;2023-03-18T11:22:20;97489.53;;;9.70;87.43
61039;BME280;46919;45.816;3.104;2023-03-18T11:25:19;97487.69;;;9.52;88.55
61039;BME280;46919;45.816;3.104;2023-03-18T11:27:50;97489.28;;;9.41;88.50
61039;BME280;46919;45.816;3.104;2023-03-18T11:30:23;97491.69;;;9.31;89.77
61039;BME280;46919;45.816;3.104;2023-03-18T11:32:57;97488.25;;;9.23;91.26
61039;BME280;46919;45.816;3.104;2023-03-18T11:38:27;97496.44;;;9.17;94.63
61039;BME280;46919;45.816;3.104;2023-03-18T11:41:05;97497.25;;;9.17;94.04
61039;BME280;46919;45.816;3.104;2023-03-18T11:43:32;97496.78;;;9.20;94.21
61039;BME280;46919;45.816;3.104;2023-03-18T11:46:03;97504.56;;;9.29;94.51
61039;BME280;46919;45.816;3.104;2023-03-18T11:48:37;97501.44;;;9.32;95.57
61039;BME280;46919;45.816;3.104;2023-03-18T11:51:25;97501.56;;;9.37;96.29
61039;BME280;46919;45.816;3.104;2023-03-18T11:56:54;97499.22;;;9.40;96.88
61039;BME280;46919;45.816;3.104;2023-03-18T12:12:57;97490.25;;;9.77;98.33
61039;BME280;46919;45.816;3.104;2023-03-18T12:20:44;97492.72;;;10.21;97.19
61039;BME280;46919;45.816;3.104;2023-03-18T12:23:25;97487.94;;;10.35;96.22
61039;BME280;46919;45.816;3.104;2023-03-18T12:26:06;97485.47;;;10.45;95.65
61039;BME280;46919;45.816;3.104;2023-03-18T12:28:37;97478.91;;;10.41;95.00
61039;BME280;46919;45.816;3.104;2023-03-18T12:33:58;97480.41;;;10.25;95.40
61039;BME280;46919;45.816;3.104;2023-03-18T12:41:42;97467.19;;;10.05;95.55
61039;BME280;46919;45.816;3.104;2023-03-18T12:46:58;97473.47;;;10.17;95.32
61039;BME280;46919;45.816;3.104;2023-03-18T12:49:33;97475.59;;;10.39;94.97
61039;BME280;46919;45.816;3.104;2023-03-18T12:52:05;97474.00;;;10.61;94.23
61039;BME280;46919;45.816;3.104;2023-03-18T12:54:37;97465.50;;;10.93;93.82
61039;BME280;46919;45.816;3.104;2023-03-18T12:57:32;97459.91;;;11.12;93.53
61039;BME280;46919;45.816;3.104;2023-03-18T13:00:00;97460.47;;;11.26;93.99
61039;BME280;46919;45.816;3.104;2023-03-18T13:05:35;97456.59;;;11.33;93.43
61039;BME280;46919;45.816;3.104;2023-03-18T13:10:50;97450.22;;;11.39;92.84
61039;BME280;46919;45.816;3.104;2023-03-18T13:13:18;97456.75;;;11.15;92.69
61039;BME280;46919;45.816;3.104;2023-03-18T13:15:49;97455.94;;;11.14;92.54
61039;BME280;46919;45.816;3.104;2023-03-18T13:20:48;97453.25;;;11.02;91.28
61039;BME280;46919;45.816;3.104;2023-03-18T13:26:19;97442.41;;;11.14;91.04
61039;BME280;46919;45.816;3.104;2023-03-18T13:34:28;97428.03;;;11.54;89.43
61039;BME280;46919;45.816;3.104;2023-03-18T13:44:52;97431.16;;;11.63;89.78
61039;BME280;46919;45.816;3.104;2023-03-18T13:47:21;97423.88;;;11.64;89.35
61039;BME280;46919;45.816;3.104;2023-03-18T13:49:48;97427.81;;;11.73;88.53
61039;BME280;46919;45.816;3.104;2023-03-18T13:52:40;97427.09;;;11.77;87.01
61039;BME280;46919;45.816;3.104;2023-03-18T13:55:21;97428.28;;;11.99;87.66
61039;BME280;46919;45.816;3.104;2023-03-18T13:57:53;97426.00;;;12.07;87.41
61039;BME280;46919;45.816;3.104;2023-03-18T14:03:14;97418.84;;;12.35;86.08
61039;BME280;46919;45.816;3.104;2023-03-18T14:05:47;97422.84;;;12.49;85.18
61039;BME280;46919;45.816;3.104;2023-03-18T14:16:11;97400.53;;;13.03;83.34
61039;BME280;46919;45.816;3.104;2023-03-18T14:18:37;97397.56;;;13.05;82.42
61039;BME280;46919;45.816;3.104;2023-03-18T14:21:05;97398.75;;;12.92;82.04
61039;BME280;46919;45.816;3.104;2023-03-18T14:26:34;97391.97;;;12.90;80.91
61039;BME280;46919;45.816;3.104;2023-03-18T14:34:41;97382.13;;;12.83;79.93
61039;BME280;46919;45.816;3.104;2023-03-18T14:39:41;97377.81;;;12.87;78.25
61039;BME280;46919;45.816;3.104;2023-03-18T14:45:35;97374.50;;;12.80;77.77
61039;BME280;46919;45.816;3.104;2023-03-18T14:48:06;97374.50;;;12.80;78.60
61039;BME280;46919;45.816;3.104;2023-03-18T14:50:52;97365.47;;;12.75;78.18
61039;BME280;46919;45.816;3.104;2023-03-18T14:55:57;97361.22;;;12.62;78.87
61039;BME280;46919;45.816;3.104;2023-03-18T14:58:26;97356.88;;;12.61;78.71
61039;BME280;46919;45.816;3.104;2023-03-18T15:00:56;97356.19;;;12.48;78.38
61039;BME280;46919;45.816;3.104;2023-03-18T15:03:26;97364.22;;;12.43;78.78
61039;BME280;46919;45.816;3.104;2023-03-18T15:05:57;97367.34;;;12.52;79.21
61039;BME280;46919;45.816;3.104;2023-03-18T15:08:27;97361.22;;;12.62;78.39
61039;BME280;46919;45.816;3.104;2023-03-18T15:10:53;97359.22;;;12.74;77.83
61039;BME280;46919;45.816;3.104;2023-03-18T15:13:21;97356.72;;;12.90;77.76
61039;BME280;46919;45.816;3.104;2023-03-18T15:15:48;97347.47;;;12.91;77.04
61039;BME280;46919;45.816;3.104;2023-03-18T15:18:30;97352.19;;;13.00;77.14